News    GLOBAL    TV    HD    3D    Ultra HD    Radio    Data    Temp.FTA    [-]    Clair

Annuaire & Zapping Satellite Européen
Recherche des Chaînes:
Hellas Sat 4 (39.0°E) - Toutes transmissions
38.0E>
<40.0E

Position orbitale Satellite Norad .ini News chaînes Chaines en clair Longitude Declination now Max declination Azimuth Elevation Mise à jour
39.0°E Hellas Sat 4 44034 83 17 38.99°E 0.02° 0.06° N/A N/A 2023-01-16 18:54
39.0°E Hellas Sat 3 42814 525 51 38.96°E -0.05° 0.05° N/A N/A 2023-02-05 20:14

Langue diffusée: Sélection par faisceau: Tri par: Cryptage: Affichage:

86 réponse(s) - Tri par fréquence - Dernières mises à jour: 2023-01-16 18:54 CET

Pos Satellite Frequence Pol Txp Beam Standard Modulation SR/FEC Network, bitrate NID TID
39.0°E 23Hellas Sat 4 10730.00H-EuropeDVB-S28PSK30000 3/465.3 Mb/s 7021 Formulaire de mise à jour des informations publiées
RIK Sat Chypre Généraliste Clair 2 401 501 eng  108  401    2022-11-06 +
4E Hellas Orthodox Grèce Religion Clair 3 1151 1152 gre  1150  1151    2022-11-06 +
AMI indéfini Courses Clair 8 481 482 aac  480  481    2023-01-16 +
Eurobet 11 Royaume Uni Jeux BISS 11 7201 7202 eng  7200  7201    2022-11-06 +
Eurobet 12 Royaume Uni Jeux BISS 12 7301 7302 eng  7300  7301    2022-11-06 +
Eurobet 13 Royaume Uni Jeux BISS 13 7401 7402 eng  7400  7401    2022-11-06 +
Eurobet 14 Royaume Uni Jeux BISS 14 7501 7502 eng  7500  7501    2022-11-06 +
Virtual Games1 indéfini Jeux BISS 101 2501 2551 aac   271  2501    2022-11-06 +
Virtual Games 2 indéfini Jeux BISS 102 2502 2552 aac   272  2502    2022-11-06 +
Powerspin indéfini Jeux BISS 103 2503 2553 aac   273  2503    2022-11-06 +
Racing Channel indéfini Jeux BISS 104 2504 2554 aac   274  2504    2022-11-06 +
LiveSports Channel indéfini Jeux BISS 105 2505 2555 aac   275  2505    2022-11-06 +
Virtual Games 3 indéfini Jeux BISS 106 2506 2556 aac   276  2506    2022-11-06 +
MultiSpin indéfini Jeux BISS 107 2507   277  2507    2022-11-06 +
ERT World HD Grèce Informations Clair 353 48 49 gre
50 
262  48    2022-11-06 +
RIK1 Clair 1   502 eng  302  801    2022-11-06
RIK 2 Clair 4   504 gre  304  504    2022-11-06
RIK3 Clair 5   505 eng  305  505    2022-11-06
RIK4 Clair 6   506 eng  306  506    2022-11-06
ELLADA FM Clair 7   63  66  63    2022-11-17
Voice Of Greece Clair 32   672 gre  96  8191    2022-11-06
Capital Radio Cyprus Clair 33   61 gre  66  62    2022-11-06
Kanali 6 Clair 36   68 tur  66  69    2022-11-06
39.0°E Hellas Sat 4 10770.00H-EuropeDVB-S28PSK30000 5/672.7 Mb/s 9265 Formulaire de mise à jour des informations publiées
Feeds occasionnels, données ou fréquence non active (2020-11-01)
39.0°E Hellas Sat 4 10770.00V-EuropeDVB-S28PSK30000 5/6668 b/s 00 Formulaire de mise à jour des informations publiées
Feeds occasionnels, données ou fréquence non active (2020-02-03)
39.0°E 41Hellas Sat 4 10890.00H-EuropeDVB-S28PSK30000 5/672.7 Mb/s 9261010 Formulaire de mise à jour des informations publiées
Vizion Plus HD Albanie Généraliste Tring Digital Conax 1010 501 502  515  501    2023-01-02 +
Teve 1 HD Albanie Généraliste Tring Digital Conax 1060 1051 1052 alb  294  1051    2023-01-02 +
ATV HD Albania Albanie Généraliste Tring Digital Conax 1110 1111 1112 alb  318  1111    2023-01-02 +
Tring Classic HD Albanie Cinéma Tring Digital Conax 1210 1201 1202 alb  295  1201    2023-01-02 +
RTV 21 Sat Kosovo Généraliste Tring Digital Conax 1310 1304 1302 alb  296  1304    2023-01-02 +
Fax News Albanie Informations Tring Digital Conax 1410 1401 1402  1001  1401    2023-01-02 +

ABC News (Albania) Albanie Informations Tring Digital Conax 1460 1461 1464 aac alb  298  1461    2023-01-02 +
A1 Report Albanie Informations Tring Digital Conax 1510 1501 1502 alb  299  1501    2023-01-02 +

News 24 Albania Albanie Informations Tring Digital Conax 1560 1551 1552 aac alb  300  1551    2023-01-02 +
Kanali 7 Albanie Informations Tring Digital Clair 1610 1601 1602  518  1601    2021-07-03 +
Syri Vision Albanie Divertissement Tring Digital Conax 1660 1651 1652 aac alb  301  1651    2023-01-02 +
Tring Tring Albanie Jeunesse Tring Digital Conax 1760 1751 1752  521  1751    2023-01-02 +
TIP TV Albanie Divers Tring Digital Conax 1860 1851 1852  522  1851    2023-01-02 +
Living HD Albanie Générationnelle Tring Digital Conax 1910 1901 1902  539  1901    2023-01-02 +
Series HD Albanie Séries Tring TV Conax 2010 2001 2002 alb  303  2001    2023-01-02 +
3 Plus Albanie Divers Tring Digital Conax 2060 2051 2052 alb  516  2051    2023-01-02 +
Kanal D Drama Albanie Séries Tring Digital Conax 2110 2308 2309 alb  304  2308    2023-01-02 +
Smile (Albania) Albanie Divertissement Tring Digital Conax 2160 2151 2152 alb  517  2151    2023-01-02 +
Tring Shqip Albanie Cinéma Tring Digital Conax 2210 2201 2202  520  2201    2023-01-02 +
Tring Super HD Albanie Divertissement Tring Digital Conax 2260 2251 2252  305  2251    2023-01-02 +
Tring Action HD Albanie Cinéma Tring Digital Conax 2310 2301 2302  306  2301    2023-01-02 +
Tring Life Albanie Séries Tring Digital Conax 2360 2351 2352  525  2351    2023-01-02 +
Tring Comedy Albanie Humour Tring TV Conax 2410 2401 2402 alb  526  2401    2023-01-02 +
Tring Fantasy Albanie Cinéma Tring Digital Conax 2460 2451 2452  2260  2451    2023-01-02 +
Tring Planet Albanie Documentaires Tring Digital Conax 2710 2701 2702  527  2701    2023-01-02 +
Tring World Albanie Documentaires Tring Digital Conax 2760 2751 2752  528  2751    2023-01-02 +
Tring Sport News Albanie Sport Tring Digital Conax 2810 2518 2519 alb  317  2518    2023-01-02 +
Sport 1 HD Albania Albanie Sport Tring Digital Conax 2860 2851 2852 alb
2853 
3552  2851    2023-01-02 +
Sport 2 HD Albania Albanie Sport Tring Digital Conax 2910 2801 2802 alb  308  2801    2023-01-02 +
Sport 3 HD Albania Albanie Sport Tring Digital Conax 2960 2782 2783 eng
2784 eng 
3554  2782    2023-01-02 +
Sport 4 HD Albania Albanie Sport Tring Digital Clair
Conax
3010 1028 1029 eng
1030 eng 
3555  1028    2022-11-06 +
Folk Plus Albanie Musicale Tring Digital Conax 3160 3151 3152 alb  535  3151    2023-01-02 +
Sport 5 Albania Albanie Sport Tring TV Conax 3210 3221 3222 alb
3223 eng 
319  3221    2023-01-02 +
Desire Albanie Pornographique Tring Digital Conax 3310 3301 3302 alb  536  3301    2021-07-03 +
Elrodi TV Albanie Divers Tring Digital Conax 3360 3351 3352 aac  309  3351    2023-01-02 +
RTSH 1 HD Albanie Généraliste Tring Digital Conax 3410 3401 3402 alb  312  3401    2023-01-02 +
Italia Uno
Part-time
Italie Généraliste Tring TV Conax 3600 3601 3602 ita  289  3601    2022-10-30 +
Tring Collection HD Albanie Cinéma Tring Digital Conax 3710 3711 3712 alb  293  3711    2023-01-02 +
Tring Novelas Albanie Séries Tring Digital Conax 3760 3751 3752 alb  313  3751    2023-01-02 +
NRG RADIO Tring Digital Clair 7012   1711 alb  314  8191    2022-10-12
OTA_Beacon INC Clair 2071     2071  8191    2022-07-23
39.0°E Hellas Sat 4 10890.00V-EuropeDVB-S2QPSK3700 1/23 663 kb/s 14 Formulaire de mise à jour des informations publiées
Feeds occasionnels, données ou fréquence non active (2022-04-28)
39.0°E 19Hellas Sat 4 10938.00H-EuropeDVB-S28PSK15835 2/3Tring, 30.6 Mb/s 9261020 Formulaire de mise à jour des informations publiées
RTK 1 Sat (Kosovo) Serbie Généraliste Tring Digital Conax 1210 1201 1202  256  1201    2023-01-02 +
Tring Original Albanie Divertissement Tring TV Conax 1710 1701 1702 alb  271  1701    2023-01-02 +
Kids Albanie Jeunesse Tring Digital Conax 1810 1801 1802 alb  258  1801    2023-01-02 +
Muse Albanie Divers Tring Digital Conax 1960 1951 1952 alb  259  1951    2023-01-02 +
Tring Family HD Albanie Divertissement Tring TV Conax 2510 2501 2502 alb  274  2501    2023-01-03 +
Club TV (Albania) Albanie Divers Tring Digital Conax 2610 2601 2602 aac alb  269  2601    2023-01-02 +
Tring History Albanie Histoire Tring Digital Conax 2660 2651 2652 alb  261  2651    2023-01-02 +
Click TV Albanie Divers Tring Digital Conax 3060 3501 3502 alb  270  3501    2023-01-02 +
Bizarre Albanie Divertissement Tring Digital Conax 3110 3201 3202 alb  267  3201    2020-12-06 +
Bunga Bunga Albanie Pornographique Tring Digital Conax 3210 3101 3102  268  3101    2020-12-06 +
BBF Albanie Musicale Tring Digital Conax 3260 3251 3252 alb  260  3251    2023-01-02 +
Rai 1
Italie Généraliste Tring Digital Conax 3460 3451 3452 ita  272  3451    2023-01-02 +
Bubble Albanie Jeunesse Tring Digital Conax 3510 3511 3514 aac alb  263  3511    2023-01-02 +
Euronews Albania France Informations Tring Digital Conax 3660 3651 3652  275  3651    2023-01-02 +
Neser TV Albanie Informations Tring TV Conax 4000 4001 4002 alb  276  4001    2023-01-02 +
IN TV (Albania) Albanie Divers Tring Digital Conax 4200 4210 4220 alb  262  4210    2023-01-02 +
RTSH Sport Albanie Sport Tring TV Conax 4400 4411 4412 aac  278  4411    2023-01-02 +
Turkish Stories Albanie Séries Tring TV Conax 4500 4501 4502 alb  279  4501    2023-01-02 +
Love Radio Tring Digital Clair 5001   2304 alb  277  2304    2022-06-10

Corrections / mises à jour

Légende

8K - Ultra HD

4K - Ultra HD

Haute définition

Diffusion partielle ou totale en 16/9

     

Video: MPEG-4/AVC/H-264

     

Video: MPEG-H/HEVC/H-265

     

Video: MPEG-I/VVC/H-266

     

Clair

     

Crypté

Affiche une capture d´image

3D

Vidéos en Direct

+

Historique des news

     

DVB-S

     

DVB-S2

     

DVB-S2X


PROFIL - ACCUEIL - NEWS - SATELLITES - BOUQUETS - CHAINES - RECHERCHE - FAISCEAUX - FEEDS - CIMETIERE - Corrections / mises à jour

Le contenu de ce site est protégé par copyright et appartient à KingOfSat, excepté les images contenues dans les captures d'écran qui appartiennent à leurs propriétaires respectifs. Ces images sont uniquement proposées à des fins d'illustration, d'identification et de promotion des chaînes TV correspondantes. Pour toute question / remarque relative au copyright, merci de contacter le webmaster.